sensor_id;sensor_type;location;lat;lon;timestamp;temperature;humidity
64499;SHT31;51087;55.718;21.122;2023-09-19T00:00:59;18.66;93.24
64499;SHT31;51087;55.718;21.122;2023-09-19T00:03:25;18.68;93.08
64499;SHT31;51087;55.718;21.122;2023-09-19T00:05:53;18.73;92.93
64499;SHT31;51087;55.718;21.122;2023-09-19T00:08:20;18.72;92.87
64499;SHT31;51087;55.718;21.122;2023-09-19T00:10:50;18.73;92.86
64499;SHT31;51087;55.718;21.122;2023-09-19T00:13:15;18.72;92.88
64499;SHT31;51087;55.718;21.122;2023-09-19T00:15:46;18.72;92.85
64499;SHT31;51087;55.718;21.122;2023-09-19T00:18:14;18.75;92.77
64499;SHT31;51087;55.718;21.122;2023-09-19T00:20:41;18.69;92.80
64499;SHT31;51087;55.718;21.122;2023-09-19T00:23:07;18.72;92.65
64499;SHT31;51087;55.718;21.122;2023-09-19T00:25:38;18.72;92.83
64499;SHT31;51087;55.718;21.122;2023-09-19T00:28:04;18.68;92.75
64499;SHT31;51087;55.718;21.122;2023-09-19T00:30:31;18.68;92.82
64499;SHT31;51087;55.718;21.122;2023-09-19T00:32:58;18.66;92.87
64499;SHT31;51087;55.718;21.122;2023-09-19T00:35:23;18.60;93.02
64499;SHT31;51087;55.718;21.122;2023-09-19T00:37:52;18.56;93.11
64499;SHT31;51087;55.718;21.122;2023-09-19T00:40:18;18.56;93.21
64499;SHT31;51087;55.718;21.122;2023-09-19T00:42:48;18.51;93.41
64499;SHT31;51087;55.718;21.122;2023-09-19T00:45:16;18.48;93.32
64499;SHT31;51087;55.718;21.122;2023-09-19T00:47:44;18.47;93.56
64499;SHT31;51087;55.718;21.122;2023-09-19T00:50:11;18.45;93.57
64499;SHT31;51087;55.718;21.122;2023-09-19T00:52:40;18.41;93.64
64499;SHT31;51087;55.718;21.122;2023-09-19T00:55:09;18.40;93.63
64499;SHT31;51087;55.718;21.122;2023-09-19T00:57:36;18.35;93.86
64499;SHT31;51087;55.718;21.122;2023-09-19T01:00:06;18.34;93.90
64499;SHT31;51087;55.718;21.122;2023-09-19T01:02:34;18.32;94.03
64499;SHT31;51087;55.718;21.122;2023-09-19T01:05:00;18.31;93.95
64499;SHT31;51087;55.718;21.122;2023-09-19T01:07:30;18.32;93.97
64499;SHT31;51087;55.718;21.122;2023-09-19T01:09:57;18.34;93.89
64499;SHT31;51087;55.718;21.122;2023-09-19T01:12:33;18.34;93.85
64499;SHT31;51087;55.718;21.122;2023-09-19T01:15:38;18.27;93.97
64499;SHT31;51087;55.718;21.122;2023-09-19T01:20:45;18.25;94.06
64499;SHT31;51087;55.718;21.122;2023-09-19T01:28:51;18.25;94.20
64499;SHT31;51087;55.718;21.122;2023-09-19T01:31:19;18.21;94.30
64499;SHT31;51087;55.718;21.122;2023-09-19T01:34:00;18.20;94.43
64499;SHT31;51087;55.718;21.122;2023-09-19T01:36:31;18.27;94.18
64499;SHT31;51087;55.718;21.122;2023-09-19T01:39:00;18.20;94.41
64499;SHT31;51087;55.718;21.122;2023-09-19T01:42:05;18.17;94.43
64499;SHT31;51087;55.718;21.122;2023-09-19T01:44:54;18.18;94.50
64499;SHT31;51087;55.718;21.122;2023-09-19T01:50:02;18.08;94.77
64499;SHT31;51087;55.718;21.122;2023-09-19T01:52:36;18.05;94.86
64499;SHT31;51087;55.718;21.122;2023-09-19T01:55:09;18.03;95.02
64499;SHT31;51087;55.718;21.122;2023-09-19T01:57:49;18.04;94.96
64499;SHT31;51087;55.718;21.122;2023-09-19T02:00:18;18.08;94.83
64499;SHT31;51087;55.718;21.122;2023-09-19T02:02:47;18.05;94.90
64499;SHT31;51087;55.718;21.122;2023-09-19T02:05:13;18.07;94.82
64499;SHT31;51087;55.718;21.122;2023-09-19T02:07:47;18.05;94.87
64499;SHT31;51087;55.718;21.122;2023-09-19T02:10:13;18.08;94.92
64499;SHT31;51087;55.718;21.122;2023-09-19T02:12:39;18.07;94.91
64499;SHT31;51087;55.718;21.122;2023-09-19T02:15:04;18.04;94.97
64499;SHT31;51087;55.718;21.122;2023-09-19T02:17:32;18.03;94.99
64499;SHT31;51087;55.718;21.122;2023-09-19T02:19:58;18.01;95.02
64499;SHT31;51087;55.718;21.122;2023-09-19T02:22:24;17.98;95.14
64499;SHT31;51087;55.718;21.122;2023-09-19T02:24:50;17.97;95.21
64499;SHT31;51087;55.718;21.122;2023-09-19T02:27:16;17.96;95.37
64499;SHT31;51087;55.718;21.122;2023-09-19T02:29:43;17.90;95.38
64499;SHT31;51087;55.718;21.122;2023-09-19T02:32:08;17.89;95.62
64499;SHT31;51087;55.718;21.122;2023-09-19T02:34:37;17.84;95.73
64499;SHT31;51087;55.718;21.122;2023-09-19T02:37:07;17.83;95.95
64499;SHT31;51087;55.718;21.122;2023-09-19T02:39:34;17.82;95.94
64499;SHT31;51087;55.718;21.122;2023-09-19T02:42:00;17.80;95.98
64499;SHT31;51087;55.718;21.122;2023-09-19T02:44:25;17.84;96.00
64499;SHT31;51087;55.718;21.122;2023-09-19T02:46:51;17.79;96.02
64499;SHT31;51087;55.718;21.122;2023-09-19T02:49:16;17.79;96.08
64499;SHT31;51087;55.718;21.122;2023-09-19T02:51:43;17.80;96.06
64499;SHT31;51087;55.718;21.122;2023-09-19T02:54:09;17.86;95.98
64499;SHT31;51087;55.718;21.122;2023-09-19T02:56:35;17.87;95.98
64499;SHT31;51087;55.718;21.122;2023-09-19T02:59:01;17.90;95.96
64499;SHT31;51087;55.718;21.122;2023-09-19T03:01:27;17.90;95.92
64499;SHT31;51087;55.718;21.122;2023-09-19T03:03:53;17.94;95.80
64499;SHT31;51087;55.718;21.122;2023-09-19T03:06:19;17.94;95.88
64499;SHT31;51087;55.718;21.122;2023-09-19T03:08:45;17.93;95.87
64499;SHT31;51087;55.718;21.122;2023-09-19T03:11:12;17.93;95.89
64499;SHT31;51087;55.718;21.122;2023-09-19T03:13:40;17.91;96.05
64499;SHT31;51087;55.718;21.122;2023-09-19T03:16:07;17.91;96.08
64499;SHT31;51087;55.718;21.122;2023-09-19T03:18:34;17.89;96.15
64499;SHT31;51087;55.718;21.122;2023-09-19T03:20:59;17.87;96.21
64499;SHT31;51087;55.718;21.122;2023-09-19T03:23:28;17.83;96.36
64499;SHT31;51087;55.718;21.122;2023-09-19T03:25:56;17.82;96.33
64499;SHT31;51087;55.718;21.122;2023-09-19T03:28:24;17.82;96.52
64499;SHT31;51087;55.718;21.122;2023-09-19T03:31:02;17.80;96.60
64499;SHT31;51087;55.718;21.122;2023-09-19T03:33:28;17.79;96.62
64499;SHT31;51087;55.718;21.122;2023-09-19T03:35:54;17.82;96.66
64499;SHT31;51087;55.718;21.122;2023-09-19T03:38:20;17.83;96.73
64499;SHT31;51087;55.718;21.122;2023-09-19T03:40:47;17.76;96.81
64499;SHT31;51087;55.718;21.122;2023-09-19T03:43:12;17.77;96.87
64499;SHT31;51087;55.718;21.122;2023-09-19T03:45:38;17.82;96.86
64499;SHT31;51087;55.718;21.122;2023-09-19T03:48:10;17.80;96.93
64499;SHT31;51087;55.718;21.122;2023-09-19T03:50:36;17.80;97.05
64499;SHT31;51087;55.718;21.122;2023-09-19T03:53:02;17.77;97.12
64499;SHT31;51087;55.718;21.122;2023-09-19T03:55:28;17.75;97.32
64499;SHT31;51087;55.718;21.122;2023-09-19T03:57:55;17.79;97.28
64499;SHT31;51087;55.718;21.122;2023-09-19T04:00:21;17.77;97.24
64499;SHT31;51087;55.718;21.122;2023-09-19T04:02:49;17.79;97.26
64499;SHT31;51087;55.718;21.122;2023-09-19T04:05:14;17.73;97.39
64499;SHT31;51087;55.718;21.122;2023-09-19T04:07:39;17.82;97.36
64499;SHT31;51087;55.718;21.122;2023-09-19T04:10:05;17.84;97.27
64499;SHT31;51087;55.718;21.122;2023-09-19T04:12:33;17.93;97.16
64499;SHT31;51087;55.718;21.122;2023-09-19T04:14:59;17.91;97.11
64499;SHT31;51087;55.718;21.122;2023-09-19T04:17:24;17.87;97.13
64499;SHT31;51087;55.718;21.122;2023-09-19T04:19:50;17.90;97.30
64499;SHT31;51087;55.718;21.122;2023-09-19T04:22:15;17.87;97.37
64499;SHT31;51087;55.718;21.122;2023-09-19T04:24:40;17.87;97.41
64499;SHT31;51087;55.718;21.122;2023-09-19T04:27:07;17.84;97.52
64499;SHT31;51087;55.718;21.122;2023-09-19T04:29:40;17.86;97.46
64499;SHT31;51087;55.718;21.122;2023-09-19T04:32:07;17.86;97.55
64499;SHT31;51087;55.718;21.122;2023-09-19T04:34:35;17.84;97.69
64499;SHT31;51087;55.718;21.122;2023-09-19T04:37:01;17.84;97.71
64499;SHT31;51087;55.718;21.122;2023-09-19T04:39:27;17.83;97.77
64499;SHT31;51087;55.718;21.122;2023-09-19T04:41:53;17.82;97.82
64499;SHT31;51087;55.718;21.122;2023-09-19T04:44:18;17.80;97.85
64499;SHT31;51087;55.718;21.122;2023-09-19T04:46:44;17.90;97.69
64499;SHT31;51087;55.718;21.122;2023-09-19T04:49:11;17.93;97.65
64499;SHT31;51087;55.718;21.122;2023-09-19T04:51:37;17.96;97.59
64499;SHT31;51087;55.718;21.122;2023-09-19T04:54:03;17.97;97.50
64499;SHT31;51087;55.718;21.122;2023-09-19T04:56:28;18.00;97.47
64499;SHT31;51087;55.718;21.122;2023-09-19T04:58:54;18.03;97.41
64499;SHT31;51087;55.718;21.122;2023-09-19T05:01:19;18.03;97.31
64499;SHT31;51087;55.718;21.122;2023-09-19T05:03:47;18.07;97.33
64499;SHT31;51087;55.718;21.122;2023-09-19T05:06:17;18.07;97.25
64499;SHT31;51087;55.718;21.122;2023-09-19T05:08:43;18.10;97.22
64499;SHT31;51087;55.718;21.122;2023-09-19T05:11:08;18.11;97.19
64499;SHT31;51087;55.718;21.122;2023-09-19T05:13:34;18.17;97.09
64499;SHT31;51087;55.718;21.122;2023-09-19T05:16:00;18.17;97.10
64499;SHT31;51087;55.718;21.122;2023-09-19T05:18:28;18.21;97.00
64499;SHT31;51087;55.718;21.122;2023-09-19T05:20:53;18.24;96.91
64499;SHT31;51087;55.718;21.122;2023-09-19T05:23:22;18.30;96.88
64499;SHT31;51087;55.718;21.122;2023-09-19T05:25:47;18.34;96.71
64499;SHT31;51087;55.718;21.122;2023-09-19T05:28:12;18.44;96.57
64499;SHT31;51087;55.718;21.122;2023-09-19T05:30:40;18.44;96.42
64499;SHT31;51087;55.718;21.122;2023-09-19T05:33:06;18.53;96.33
64499;SHT31;51087;55.718;21.122;2023-09-19T05:35:32;18.56;96.12
64499;SHT31;51087;55.718;21.122;2023-09-19T05:37:58;18.58;96.07
64499;SHT31;51087;55.718;21.122;2023-09-19T05:40:24;18.58;96.04
64499;SHT31;51087;55.718;21.122;2023-09-19T05:42:50;18.65;96.04
64499;SHT31;51087;55.718;21.122;2023-09-19T05:45:16;18.65;95.95
64499;SHT31;51087;55.718;21.122;2023-09-19T05:47:47;18.69;95.86
64499;SHT31;51087;55.718;21.122;2023-09-19T05:50:13;18.72;95.76
64499;SHT31;51087;55.718;21.122;2023-09-19T05:52:40;18.70;95.69
64499;SHT31;51087;55.718;21.122;2023-09-19T05:55:06;18.72;95.68
64499;SHT31;51087;55.718;21.122;2023-09-19T05:57:36;18.70;95.70
64499;SHT31;51087;55.718;21.122;2023-09-19T06:00:05;18.70;95.76
64499;SHT31;51087;55.718;21.122;2023-09-19T06:02:38;18.77;95.75
64499;SHT31;51087;55.718;21.122;2023-09-19T06:05:05;18.82;95.67
64499;SHT31;51087;55.718;21.122;2023-09-19T06:07:32;18.86;95.65
64499;SHT31;51087;55.718;21.122;2023-09-19T06:10:05;18.80;95.53
64499;SHT31;51087;55.718;21.122;2023-09-19T06:12:32;18.82;95.62
64499;SHT31;51087;55.718;21.122;2023-09-19T06:15:00;18.80;95.74
64499;SHT31;51087;55.718;21.122;2023-09-19T06:17:25;18.80;95.76
64499;SHT31;51087;55.718;21.122;2023-09-19T06:19:52;18.77;95.95
64499;SHT31;51087;55.718;21.122;2023-09-19T06:22:18;18.80;95.90
64499;SHT31;51087;55.718;21.122;2023-09-19T06:24:44;18.79;95.88
64499;SHT31;51087;55.718;21.122;2023-09-19T06:27:09;18.80;95.91
64499;SHT31;51087;55.718;21.122;2023-09-19T06:29:35;18.83;95.76
64499;SHT31;51087;55.718;21.122;2023-09-19T06:32:07;18.83;95.84
64499;SHT31;51087;55.718;21.122;2023-09-19T06:34:33;18.95;95.65
64499;SHT31;51087;55.718;21.122;2023-09-19T06:36:59;18.97;95.49
64499;SHT31;51087;55.718;21.122;2023-09-19T06:39:25;19.03;95.35
64499;SHT31;51087;55.718;21.122;2023-09-19T06:41:51;18.96;95.41
64499;SHT31;51087;55.718;21.122;2023-09-19T06:44:19;19.06;95.33
64499;SHT31;51087;55.718;21.122;2023-09-19T06:46:46;19.13;95.10
64499;SHT31;51087;55.718;21.122;2023-09-19T06:49:15;19.28;94.63
64499;SHT31;51087;55.718;21.122;2023-09-19T06:51:40;19.32;94.39
64499;SHT31;51087;55.718;21.122;2023-09-19T06:54:07;19.48;94.11
64499;SHT31;51087;55.718;21.122;2023-09-19T06:56:32;19.38;94.08
64499;SHT31;51087;55.718;21.122;2023-09-19T06:58:58;19.45;94.13
64499;SHT31;51087;55.718;21.122;2023-09-19T07:01:23;19.35;94.32
64499;SHT31;51087;55.718;21.122;2023-09-19T07:03:49;19.45;94.34
64499;SHT31;51087;55.718;21.122;2023-09-19T07:06:14;19.45;94.05
64499;SHT31;51087;55.718;21.122;2023-09-19T07:08:40;19.47;94.07
64499;SHT31;51087;55.718;21.122;2023-09-19T07:11:05;19.61;94.02
64499;SHT31;51087;55.718;21.122;2023-09-19T07:13:31;19.61;93.93
64499;SHT31;51087;55.718;21.122;2023-09-19T07:15:58;19.57;94.22
64499;SHT31;51087;55.718;21.122;2023-09-19T07:18:24;19.51;94.26
64499;SHT31;51087;55.718;21.122;2023-09-19T07:20:50;19.57;94.13
64499;SHT31;51087;55.718;21.122;2023-09-19T07:23:19;19.68;94.05
64499;SHT31;51087;55.718;21.122;2023-09-19T07:25:46;19.51;94.31
64499;SHT31;51087;55.718;21.122;2023-09-19T07:28:11;19.54;94.61
64499;SHT31;51087;55.718;21.122;2023-09-19T07:30:37;19.48;94.86
64499;SHT31;51087;55.718;21.122;2023-09-19T07:33:03;19.45;95.27
64499;SHT31;51087;55.718;21.122;2023-09-19T07:35:30;19.50;95.30
64499;SHT31;51087;55.718;21.122;2023-09-19T07:37:57;19.35;95.89
64499;SHT31;51087;55.718;21.122;2023-09-19T07:40:27;19.39;95.95
64499;SHT31;51087;55.718;21.122;2023-09-19T07:42:55;19.54;95.59
64499;SHT31;51087;55.718;21.122;2023-09-19T07:45:20;19.52;95.66
64499;SHT31;51087;55.718;21.122;2023-09-19T07:47:47;19.52;96.08
64499;SHT31;51087;55.718;21.122;2023-09-19T07:50:19;19.55;96.09
64499;SHT31;51087;55.718;21.122;2023-09-19T07:52:45;19.71;95.62
64499;SHT31;51087;55.718;21.122;2023-09-19T07:55:11;19.81;95.60
64499;SHT31;51087;55.718;21.122;2023-09-19T07:57:43;19.82;95.77
64499;SHT31;51087;55.718;21.122;2023-09-19T08:00:09;19.79;96.18
64499;SHT31;51087;55.718;21.122;2023-09-19T08:02:38;19.89;96.29
64499;SHT31;51087;55.718;21.122;2023-09-19T08:05:05;19.76;96.87
64499;SHT31;51087;55.718;21.122;2023-09-19T08:07:32;19.75;97.04
64499;SHT31;51087;55.718;21.122;2023-09-19T08:09:57;19.71;97.33
64499;SHT31;51087;55.718;21.122;2023-09-19T08:12:24;19.68;97.09
64499;SHT31;51087;55.718;21.122;2023-09-19T08:14:50;19.58;97.52
64499;SHT31;51087;55.718;21.122;2023-09-19T08:17:15;19.61;97.58
64499;SHT31;51087;55.718;21.122;2023-09-19T08:19:41;19.66;97.74
64499;SHT31;51087;55.718;21.122;2023-09-19T08:22:07;19.57;98.15
64499;SHT31;51087;55.718;21.122;2023-09-19T08:24:36;19.55;98.49
64499;SHT31;51087;55.718;21.122;2023-09-19T08:27:03;19.52;98.57
64499;SHT31;51087;55.718;21.122;2023-09-19T08:29:30;19.43;98.93
64499;SHT31;51087;55.718;21.122;2023-09-19T08:31:57;19.31;99.69
64499;SHT31;51087;55.718;21.122;2023-09-19T08:34:23;19.27;99.99
64499;SHT31;51087;55.718;21.122;2023-09-19T08:36:55;19.21;99.99
64499;SHT31;51087;55.718;21.122;2023-09-19T08:39:24;19.23;99.99
64499;SHT31;51087;55.718;21.122;2023-09-19T08:42:00;19.13;99.99
64499;SHT31;51087;55.718;21.122;2023-09-19T08:44:26;19.08;99.99
64499;SHT31;51087;55.718;21.122;2023-09-19T08:46:55;19.07;99.99
64499;SHT31;51087;55.718;21.122;2023-09-19T08:49:37;19.00;99.99
64499;SHT31;51087;55.718;21.122;2023-09-19T08:52:20;18.93;99.99
64499;SHT31;51087;55.718;21.122;2023-09-19T08:54:47;18.89;99.99
64499;SHT31;51087;55.718;21.122;2023-09-19T08:57:15;18.85;99.99
64499;SHT31;51087;55.718;21.122;2023-09-19T08:59:47;18.65;99.99
64499;SHT31;51087;55.718;21.122;2023-09-19T09:02:14;18.59;99.99
64499;SHT31;51087;55.718;21.122;2023-09-19T09:04:41;18.48;99.99
64499;SHT31;51087;55.718;21.122;2023-09-19T09:07:16;18.44;99.99
64499;SHT31;51087;55.718;21.122;2023-09-19T09:09:44;18.44;99.99
64499;SHT31;51087;55.718;21.122;2023-09-19T09:12:14;18.40;99.99
64499;SHT31;51087;55.718;21.122;2023-09-19T09:14:43;18.40;99.99
64499;SHT31;51087;55.718;21.122;2023-09-19T09:17:10;18.42;99.99
64499;SHT31;51087;55.718;21.122;2023-09-19T09:19:36;18.30;99.99
64499;SHT31;51087;55.718;21.122;2023-09-19T09:22:08;18.32;99.99
64499;SHT31;51087;55.718;21.122;2023-09-19T09:24:34;18.31;99.99
64499;SHT31;51087;55.718;21.122;2023-09-19T09:27:03;18.31;99.99
64499;SHT31;51087;55.718;21.122;2023-09-19T09:29:47;18.32;99.99
64499;SHT31;51087;55.718;21.122;2023-09-19T09:32:24;18.20;99.99
64499;SHT31;51087;55.718;21.122;2023-09-19T09:34:51;18.15;99.99
64499;SHT31;51087;55.718;21.122;2023-09-19T09:37:17;18.17;99.99
64499;SHT31;51087;55.718;21.122;2023-09-19T09:39:56;18.21;99.99
64499;SHT31;51087;55.718;21.122;2023-09-19T09:42:35;18.17;99.99
64499;SHT31;51087;55.718;21.122;2023-09-19T09:45:21;18.24;99.99
64499;SHT31;51087;55.718;21.122;2023-09-19T09:48:00;18.22;99.99
64499;SHT31;51087;55.718;21.122;2023-09-19T09:50:35;18.32;99.99
64499;SHT31;51087;55.718;21.122;2023-09-19T09:53:20;18.34;99.99
64499;SHT31;51087;55.718;21.122;2023-09-19T09:58:27;18.34;99.99
64499;SHT31;51087;55.718;21.122;2023-09-19T10:00:58;18.34;99.99
64499;SHT31;51087;55.718;21.122;2023-09-19T10:03:35;18.35;99.99
64499;SHT31;51087;55.718;21.122;2023-09-19T10:06:12;18.35;99.99
64499;SHT31;51087;55.718;21.122;2023-09-19T10:09:09;18.38;99.99
64499;SHT31;51087;55.718;21.122;2023-09-19T10:11:43;18.44;99.99
64499;SHT31;51087;55.718;21.122;2023-09-19T10:14:10;18.45;99.99
64499;SHT31;51087;55.718;21.122;2023-09-19T10:16:41;18.51;99.99
64499;SHT31;51087;55.718;21.122;2023-09-19T10:19:16;18.53;99.99
64499;SHT31;51087;55.718;21.122;2023-09-19T10:21:42;18.56;99.99
64499;SHT31;51087;55.718;21.122;2023-09-19T10:24:08;18.63;99.99
64499;SHT31;51087;55.718;21.122;2023-09-19T10:26:36;18.68;99.99
64499;SHT31;51087;55.718;21.122;2023-09-19T10:29:03;18.70;99.99
64499;SHT31;51087;55.718;21.122;2023-09-19T10:31:32;18.73;99.99
64499;SHT31;51087;55.718;21.122;2023-09-19T10:34:03;18.63;99.99
64499;SHT31;51087;55.718;21.122;2023-09-19T10:36:45;18.68;99.99
64499;SHT31;51087;55.718;21.122;2023-09-19T10:39:14;18.68;99.99
64499;SHT31;51087;55.718;21.122;2023-09-19T10:41:50;18.70;99.99
64499;SHT31;51087;55.718;21.122;2023-09-19T10:44:21;18.80;99.99
64499;SHT31;51087;55.718;21.122;2023-09-19T10:46:49;18.82;99.99
64499;SHT31;51087;55.718;21.122;2023-09-19T10:49:14;18.83;99.99
64499;SHT31;51087;55.718;21.122;2023-09-19T10:51:42;18.82;99.99
64499;SHT31;51087;55.718;21.122;2023-09-19T10:54:13;18.83;99.99
64499;SHT31;51087;55.718;21.122;2023-09-19T10:56:46;18.83;99.99
64499;SHT31;51087;55.718;21.122;2023-09-19T10:59:18;18.77;99.99
64499;SHT31;51087;55.718;21.122;2023-09-19T11:01:49;18.76;99.99
64499;SHT31;51087;55.718;21.122;2023-09-19T11:04:36;18.79;99.99
64499;SHT31;51087;55.718;21.122;2023-09-19T11:07:14;18.86;99.99
64499;SHT31;51087;55.718;21.122;2023-09-19T11:12:11;18.79;99.99
64499;SHT31;51087;55.718;21.122;2023-09-19T11:14:39;18.79;99.99
64499;SHT31;51087;55.718;21.122;2023-09-19T11:30:45;19.06;99.99
64499;SHT31;51087;55.718;21.122;2023-09-19T11:36:07;19.10;99.99
64499;SHT31;51087;55.718;21.122;2023-09-19T11:46:26;19.41;99.99
64499;SHT31;51087;55.718;21.122;2023-09-19T11:48:53;19.51;99.99
64499;SHT31;51087;55.718;21.122;2023-09-19T11:51:21;19.44;99.99
64499;SHT31;51087;55.718;21.122;2023-09-19T11:54:03;19.57;99.99
64499;SHT31;51087;55.718;21.122;2023-09-19T11:56:28;19.62;99.99
64499;SHT31;51087;55.718;21.122;2023-09-19T11:58:57;19.97;99.74
64499;SHT31;51087;55.718;21.122;2023-09-19T12:03:55;19.76;99.99
64499;SHT31;51087;55.718;21.122;2023-09-19T12:06:26;19.51;99.99
64499;SHT31;51087;55.718;21.122;2023-09-19T12:08:52;19.41;99.99
64499;SHT31;51087;55.718;21.122;2023-09-19T12:11:21;19.18;99.99
64499;SHT31;51087;55.718;21.122;2023-09-19T12:13:48;19.14;99.99
64499;SHT31;51087;55.718;21.122;2023-09-19T12:16:20;19.16;99.99
64499;SHT31;51087;55.718;21.122;2023-09-19T12:18:50;19.10;99.99
64499;SHT31;51087;55.718;21.122;2023-09-19T12:21:23;19.11;99.99
64499;SHT31;51087;55.718;21.122;2023-09-19T12:26:45;19.16;99.99
64499;SHT31;51087;55.718;21.122;2023-09-19T12:29:18;19.21;99.99
64499;SHT31;51087;55.718;21.122;2023-09-19T12:31:54;19.34;99.99
64499;SHT31;51087;55.718;21.122;2023-09-19T12:34:31;19.50;99.76
64499;SHT31;51087;55.718;21.122;2023-09-19T12:37:18;20.05;98.02
64499;SHT31;51087;55.718;21.122;2023-09-19T12:39:49;20.14;97.57
64499;SHT31;51087;55.718;21.122;2023-09-19T12:42:17;20.26;97.21
64499;SHT31;51087;55.718;21.122;2023-09-19T12:44:49;20.20;97.58
64499;SHT31;51087;55.718;21.122;2023-09-19T12:47:21;20.40;96.16
64499;SHT31;51087;55.718;21.122;2023-09-19T12:52:36;20.82;95.31
64499;SHT31;51087;55.718;21.122;2023-09-19T12:55:02;20.41;95.80
64499;SHT31;51087;55.718;21.122;2023-09-19T12:57:28;20.01;97.09
64499;SHT31;51087;55.718;21.122;2023-09-19T12:59:57;19.73;97.48
64499;SHT31;51087;55.718;21.122;2023-09-19T13:02:23;19.81;97.65
64499;SHT31;51087;55.718;21.122;2023-09-19T13:04:54;19.99;96.87
64499;SHT31;51087;55.718;21.122;2023-09-19T13:07:44;20.20;96.02
64499;SHT31;51087;55.718;21.122;2023-09-19T13:10:19;20.59;94.61
64499;SHT31;51087;55.718;21.122;2023-09-19T13:12:49;20.78;94.04
64499;SHT31;51087;55.718;21.122;2023-09-19T13:15:15;20.58;93.31
64499;SHT31;51087;55.718;21.122;2023-09-19T13:17:48;20.55;94.10
64499;SHT31;51087;55.718;21.122;2023-09-19T13:20:27;20.23;95.12
64499;SHT31;51087;55.718;21.122;2023-09-19T13:22:53;20.23;95.56
64499;SHT31;51087;55.718;21.122;2023-09-19T13:25:23;20.12;95.75
64499;SHT31;51087;55.718;21.122;2023-09-19T13:27:57;20.21;95.65
64499;SHT31;51087;55.718;21.122;2023-09-19T13:30:24;20.20;95.76
64499;SHT31;51087;55.718;21.122;2023-09-19T13:32:50;20.14;95.72
64499;SHT31;51087;55.718;21.122;2023-09-19T13:35:16;19.92;96.57
64499;SHT31;51087;55.718;21.122;2023-09-19T13:37:42;19.69;97.39
64499;SHT31;51087;55.718;21.122;2023-09-19T13:40:12;19.50;98.03
64499;SHT31;51087;55.718;21.122;2023-09-19T13:42:38;19.47;98.23
64499;SHT31;51087;55.718;21.122;2023-09-19T13:45:05;19.31;98.89
64499;SHT31;51087;55.718;21.122;2023-09-19T13:47:32;19.57;98.50
64499;SHT31;51087;55.718;21.122;2023-09-19T13:49:58;19.62;96.42
64499;SHT31;51087;55.718;21.122;2023-09-19T13:52:24;19.76;95.44
64499;SHT31;51087;55.718;21.122;2023-09-19T13:54:53;19.78;95.19
64499;SHT31;51087;55.718;21.122;2023-09-19T13:57:22;19.59;94.73
64499;SHT31;51087;55.718;21.122;2023-09-19T13:59:47;19.66;94.39
64499;SHT31;51087;55.718;21.122;2023-09-19T14:02:13;19.55;94.91
64499;SHT31;51087;55.718;21.122;2023-09-19T14:04:39;19.55;95.25
64499;SHT31;51087;55.718;21.122;2023-09-19T14:07:05;19.61;95.15
64499;SHT31;51087;55.718;21.122;2023-09-19T14:09:32;19.52;94.19
64499;SHT31;51087;55.718;21.122;2023-09-19T14:11:57;19.69;93.83
64499;SHT31;51087;55.718;21.122;2023-09-19T14:14:23;19.69;92.67
64499;SHT31;51087;55.718;21.122;2023-09-19T14:16:49;19.63;92.79
64499;SHT31;51087;55.718;21.122;2023-09-19T14:19:14;19.72;92.19
64499;SHT31;51087;55.718;21.122;2023-09-19T14:21:41;19.61;92.69
64499;SHT31;51087;55.718;21.122;2023-09-19T14:24:07;19.51;92.11
64499;SHT31;51087;55.718;21.122;2023-09-19T14:26:36;19.44;91.83
64499;SHT31;51087;55.718;21.122;2023-09-19T14:29:02;19.36;92.14
64499;SHT31;51087;55.718;21.122;2023-09-19T14:31:28;19.17;92.98
64499;SHT31;51087;55.718;21.122;2023-09-19T14:33:57;19.16;93.40
64499;SHT31;51087;55.718;21.122;2023-09-19T14:36:24;19.21;93.50
64499;SHT31;51087;55.718;21.122;2023-09-19T14:38:52;19.18;94.00
64499;SHT31;51087;55.718;21.122;2023-09-19T14:41:23;19.21;94.44
64499;SHT31;51087;55.718;21.122;2023-09-19T14:43:51;19.24;94.28
64499;SHT31;51087;55.718;21.122;2023-09-19T14:46:16;19.28;93.37
64499;SHT31;51087;55.718;21.122;2023-09-19T14:48:43;19.43;91.63
64499;SHT31;51087;55.718;21.122;2023-09-19T14:51:09;19.78;90.50
64499;SHT31;51087;55.718;21.122;2023-09-19T14:53:37;20.36;89.26
64499;SHT31;51087;55.718;21.122;2023-09-19T14:56:07;20.00;90.04
64499;SHT31;51087;55.718;21.122;2023-09-19T14:58:33;19.94;90.03
64499;SHT31;51087;55.718;21.122;2023-09-19T15:01:06;19.69;89.73
64499;SHT31;51087;55.718;21.122;2023-09-19T15:03:35;19.68;89.73
64499;SHT31;51087;55.718;21.122;2023-09-19T15:06:06;19.45;89.98
64499;SHT31;51087;55.718;21.122;2023-09-19T15:08:33;19.32;90.12
64499;SHT31;51087;55.718;21.122;2023-09-19T15:11:06;19.36;90.70
64499;SHT31;51087;55.718;21.122;2023-09-19T15:13:33;19.27;91.40
64499;SHT31;51087;55.718;21.122;2023-09-19T15:16:02;19.10;91.23
64499;SHT31;51087;55.718;21.122;2023-09-19T15:18:29;18.92;92.21
64499;SHT31;51087;55.718;21.122;2023-09-19T15:21:00;18.76;93.41
64499;SHT31;51087;55.718;21.122;2023-09-19T15:23:25;18.65;94.43
64499;SHT31;51087;55.718;21.122;2023-09-19T15:25:51;18.65;93.93
64499;SHT31;51087;55.718;21.122;2023-09-19T15:28:17;18.66;93.17
64499;SHT31;51087;55.718;21.122;2023-09-19T15:30:43;18.63;91.67
64499;SHT31;51087;55.718;21.122;2023-09-19T15:33:08;18.63;91.30
64499;SHT31;51087;55.718;21.122;2023-09-19T15:35:34;18.65;90.96
64499;SHT31;51087;55.718;21.122;2023-09-19T15:38:02;18.66;89.53
64499;SHT31;51087;55.718;21.122;2023-09-19T15:40:27;18.63;87.88
64499;SHT31;51087;55.718;21.122;2023-09-19T15:42:54;18.66;87.02
64499;SHT31;51087;55.718;21.122;2023-09-19T15:45:21;18.66;87.45
64499;SHT31;51087;55.718;21.122;2023-09-19T15:47:47;18.62;87.64
64499;SHT31;51087;55.718;21.122;2023-09-19T15:50:12;18.55;86.55
64499;SHT31;51087;55.718;21.122;2023-09-19T15:52:41;18.56;86.81
64499;SHT31;51087;55.718;21.122;2023-09-19T15:55:07;18.56;87.75
64499;SHT31;51087;55.718;21.122;2023-09-19T15:57:37;18.59;88.60
64499;SHT31;51087;55.718;21.122;2023-09-19T16:00:04;18.55;89.20
64499;SHT31;51087;55.718;21.122;2023-09-19T16:02:35;18.52;89.06
64499;SHT31;51087;55.718;21.122;2023-09-19T16:05:01;18.45;87.95
64499;SHT31;51087;55.718;21.122;2023-09-19T16:07:26;18.38;88.30
64499;SHT31;51087;55.718;21.122;2023-09-19T16:09:52;18.35;89.22
64499;SHT31;51087;55.718;21.122;2023-09-19T16:12:17;18.27;89.00